Time;durP1;ratioP1;P1;durP2;ratioP2;P2;SDS_P1;SDS_P2;PMS_P1;PMS_P2;Temp;Humidity;BMP_temperature;BMP_pressure;BME280_temperature;BME280_humidity;BME280_pressure;Samples;Min_cycle;Max_cycle;Signal;HPM_P1;HPM_P2
2022/10/14 00:01:14;;;;;;;0.33;0.33;;;23.80;46.80;;;;;;5045944;28;20214;-71
2022/10/14 00:03:42;;;;;;;1.53;0.40;;;23.60;46.50;;;;;;5049421;28;20313;-71
2022/10/14 00:06:13;;;;;;;0.70;0.40;;;23.80;44.80;;;;;;5042926;28;20618;-71
2022/10/14 00:08:42;;;;;;;3.90;0.30;;;24.00;44.40;;;;;;5046888;28;20253;-72
2022/10/14 00:11:12;;;;;;;0.50;0.40;;;24.20;42.50;;;;;;5049820;28;20171;-72
2022/10/14 00:13:40;;;;;;;0.30;0.30;;;23.90;43.40;;;;;;5049909;28;20184;-71
2022/10/14 00:16:15;;;;;;;0.30;0.30;;;24.00;43.00;;;;;;5051372;28;20313;-72
2022/10/14 00:18:42;;;;;;;0.80;0.40;;;24.10;43.30;;;;;;5048173;28;20183;-70
2022/10/14 00:21:10;;;;;;;0.50;0.47;;;24.30;43.10;;;;;;5039674;28;20693;-70
2022/10/14 00:23:37;;;;;;;1.70;0.40;;;24.60;41.70;;;;;;5051068;28;20219;-70
2022/10/14 00:26:05;;;;;;;1.90;0.30;;;24.30;40.30;;;;;;5051050;28;20175;-72
2022/10/14 00:28:32;;;;;;;1.50;0.30;;;24.30;40.80;;;;;;5050698;28;20662;-69
2022/10/14 00:31:01;;;;;;;1.07;0.60;;;24.50;41.10;;;;;;5050017;28;20642;-70
2022/10/14 00:33:29;;;;;;;1.73;0.37;;;24.70;41.50;;;;;;5048033;28;20195;-71
2022/10/14 00:35:58;;;;;;;0.30;0.30;;;24.60;40.90;;;;;;5047954;28;20203;-70
2022/10/14 00:38:26;;;;;;;1.27;0.67;;;24.30;40.80;;;;;;5046090;28;20172;-70
2022/10/14 00:40:55;;;;;;;0.40;0.40;;;24.20;41.20;;;;;;5046091;28;20250;-70
2022/10/14 00:43:24;;;;;;;0.30;0.30;;;24.30;40.40;;;;;;5044203;28;20560;-72
2022/10/14 00:45:53;;;;;;;0.30;0.30;;;24.30;38.70;;;;;;5048854;28;20243;-71
2022/10/14 00:48:25;;;;;;;0.30;0.30;;;24.30;38.80;;;;;;5055095;28;20216;-70
2022/10/14 00:50:55;;;;;;;0.30;0.30;;;24.60;38.30;;;;;;5038308;28;20260;-73
2022/10/14 00:53:23;;;;;;;2.10;0.30;;;24.50;37.60;;;;;;5048780;28;20195;-73
2022/10/14 00:55:50;;;;;;;0.40;0.40;;;24.60;37.60;;;;;;5049484;28;20188;-71
2022/10/14 00:58:18;;;;;;;1.13;0.30;;;24.60;36.60;;;;;;5053746;28;20219;-74
2022/10/14 01:00:45;;;;;;;0.30;0.30;;;24.70;38.30;;;;;;5051560;28;20212;-66
2022/10/14 01:03:22;;;;;;;1.43;0.30;;;24.70;37.60;;;;;;5047658;28;20176;-70
2022/10/14 01:06:04;;;;;;;0.40;0.37;;;24.90;37.10;;;;;;5039469;28;20191;-73
2022/10/14 01:08:39;;;;;;;0.43;0.30;;;24.70;36.50;;;;;;5040801;28;20639;-70
2022/10/14 01:11:18;;;;;;;0.43;0.30;;;24.90;36.50;;;;;;5050867;28;20274;-70
2022/10/14 01:14:16;;;;;;;0.30;0.30;;;24.80;37.30;;;;;;5044444;28;20612;-73
2022/10/14 01:16:58;;;;;;;0.53;0.40;;;25.00;36.30;;;;;;5041122;28;20176;-68
2022/10/14 01:19:52;;;;;;;0.80;0.33;;;25.10;37.50;;;;;;5049873;28;20215;-71
2022/10/14 01:22:32;;;;;;;0.20;0.20;;;25.00;36.80;;;;;;5055412;28;20215;-68
2022/10/14 01:25:34;;;;;;;0.40;0.40;;;25.30;36.30;;;;;;5054966;28;20172;-70
2022/10/14 01:28:21;;;;;;;0.40;0.40;;;24.90;36.20;;;;;;5053499;28;20174;-71
2022/10/14 01:31:03;;;;;;;2.20;0.60;;;25.20;36.90;;;;;;5045105;28;20249;-71
2022/10/14 01:33:44;;;;;;;0.37;0.37;;;25.50;35.70;;;;;;5054994;28;20676;-70
2022/10/14 01:36:40;;;;;;;0.40;0.30;;;25.30;34.20;;;;;;5054339;28;20203;-72
2022/10/14 01:39:32;;;;;;;2.40;0.40;;;25.30;35.30;;;;;;5042035;28;20201;-71
2022/10/14 01:42:15;;;;;;;0.33;0.33;;;25.60;35.30;;;;;;5050843;28;20189;-70
2022/10/14 01:44:47;;;;;;;0.43;0.33;;;25.10;35.30;;;;;;5050497;28;20267;-69
2022/10/14 01:47:19;;;;;;;0.63;0.30;;;24.80;36.10;;;;;;5043199;28;20227;-71
2022/10/14 01:50:04;;;;;;;0.60;0.40;;;25.30;33.80;;;;;;5054853;28;20184;-72
2022/10/14 01:52:40;;;;;;;0.30;0.30;;;25.30;30.80;;;;;;5053318;28;20168;-71
2022/10/14 01:55:13;;;;;;;1.47;0.20;;;25.20;33.00;;;;;;5050079;28;20180;-72
2022/10/14 01:57:43;;;;;;;0.30;0.30;;;25.30;33.30;;;;;;5054009;28;20179;-72
2022/10/14 02:00:11;;;;;;;1.80;0.40;;;25.30;31.90;;;;;;5051352;28;20227;-73
2022/10/14 02:02:38;;;;;;;0.50;0.30;;;25.00;32.70;;;;;;5048512;28;20200;-71
2022/10/14 02:05:29;;;;;;;4.77;0.40;;;25.30;31.70;;;;;;5048930;28;20188;-71
2022/10/14 02:08:20;;;;;;;0.50;0.40;;;25.20;32.60;;;;;;5041283;28;20202;-72
2022/10/14 02:10:56;;;;;;;2.40;0.40;;;25.20;32.60;;;;;;5054292;28;20183;-72
2022/10/14 02:13:36;;;;;;;0.30;0.30;;;25.40;32.40;;;;;;5040069;28;20178;-71
2022/10/14 02:16:24;;;;;;;0.83;0.37;;;25.40;31.20;;;;;;5054529;28;20703;-72
2022/10/14 02:19:03;;;;;;;0.83;0.40;;;25.30;31.40;;;;;;5054212;28;20219;-71
2022/10/14 02:21:41;;;;;;;1.10;0.33;;;25.80;31.10;;;;;;5053488;28;20598;-71
2022/10/14 02:24:18;;;;;;;0.47;0.33;;;25.40;31.40;;;;;;5054321;28;20180;-72
2022/10/14 02:26:49;;;;;;;0.30;0.30;;;25.20;31.80;;;;;;5053554;28;20218;-72
2022/10/14 02:29:19;;;;;;;0.50;0.50;;;25.20;31.00;;;;;;5054399;28;20179;-74
2022/10/14 02:31:47;;;;;;;1.00;0.43;;;25.60;30.20;;;;;;5053935;28;20172;-70
2022/10/14 02:34:19;;;;;;;1.13;0.33;;;25.30;30.50;;;;;;5054213;28;20549;-72
2022/10/14 02:36:47;;;;;;;2.30;0.40;;;25.30;29.50;;;;;;5053151;28;20175;-74
2022/10/14 02:39:25;;;;;;;4.00;0.40;;;25.10;30.00;;;;;;5053977;28;20172;-71
2022/10/14 02:41:53;;;;;;;0.50;0.40;;;25.30;29.90;;;;;;5053435;28;20539;-71
2022/10/14 02:44:20;;;;;;;0.20;0.20;;;26.00;30.20;;;;;;5053797;28;20176;-72
2022/10/14 02:46:48;;;;;;;1.53;0.50;;;25.80;29.30;;;;;;5053241;28;20440;-71
2022/10/14 02:49:17;;;;;;;2.50;0.70;;;25.50;29.80;;;;;;5053420;28;20168;-72
2022/10/14 02:51:44;;;;;;;0.40;0.40;;;25.70;28.50;;;;;;5052333;28;20179;-72
2022/10/14 02:54:11;;;;;;;0.57;0.40;;;25.80;28.80;;;;;;5045778;28;20234;-71
2022/10/14 02:56:39;;;;;;;0.50;0.40;;;25.80;28.10;;;;;;5041315;28;20172;-70
2022/10/14 02:59:07;;;;;;;2.43;0.40;;;26.10;27.40;;;;;;5053779;28;20187;-71
2022/10/14 03:01:34;;;;;;;1.63;0.60;;;25.80;28.40;;;;;;5053371;28;20243;-73
2022/10/14 03:04:02;;;;;;;0.40;0.30;;;26.00;25.20;;;;;;5044240;28;20651;-72
2022/10/14 03:06:29;;;;;;;0.40;0.30;;;26.00;26.20;;;;;;5043766;28;20211;-70
2022/10/14 03:08:56;;;;;;;1.27;0.33;;;25.80;24.60;;;;;;5053352;28;20183;-73
2022/10/14 03:11:24;;;;;;;0.30;0.30;;;26.30;24.50;;;;;;5043423;28;20192;-71
2022/10/14 03:13:51;;;;;;;1.33;0.50;;;26.50;25.30;;;;;;5046664;28;20520;-72
2022/10/14 03:16:18;;;;;;;1.33;0.30;;;26.40;22.90;;;;;;5053461;28;20176;-71
2022/10/14 03:18:46;;;;;;;5.00;0.80;;;26.50;22.80;;;;;;5053043;28;20179;-72
2022/10/14 03:21:13;;;;;;;1.43;0.43;;;26.40;22.50;;;;;;5053182;28;20220;-71
2022/10/14 03:23:40;;;;;;;1.10;0.50;;;26.60;22.50;;;;;;5053073;28;20199;-72
2022/10/14 03:26:08;;;;;;;2.63;0.40;;;27.10;22.60;;;;;;5052945;28;20677;-72
2022/10/14 03:28:35;;;;;;;4.50;0.40;;;27.00;22.70;;;;;;5049588;28;20176;-71
2022/10/14 03:31:02;;;;;;;0.73;0.40;;;27.10;22.90;;;;;;5053110;28;20172;-73
2022/10/14 03:33:30;;;;;;;1.13;0.60;;;26.90;22.20;;;;;;5052847;28;20677;-72
2022/10/14 03:35:57;;;;;;;2.67;0.50;;;26.40;21.60;;;;;;5052930;28;20182;-70
2022/10/14 03:38:24;;;;;;;0.70;0.50;;;26.40;21.70;;;;;;5052870;28;20645;-71
2022/10/14 03:40:52;;;;;;;0.60;0.47;;;26.80;22.30;;;;;;5052456;28;20317;-70
2022/10/14 03:43:19;;;;;;;3.90;0.40;;;26.90;21.80;;;;;;5032733;28;20222;-70
2022/10/14 03:45:47;;;;;;;1.73;0.40;;;26.70;22.60;;;;;;5044610;28;20220;-72
2022/10/14 03:48:15;;;;;;;1.17;0.40;;;27.10;22.10;;;;;;5052751;28;20169;-70
2022/10/14 03:50:42;;;;;;;0.83;0.80;;;26.80;22.00;;;;;;5052307;28;20530;-73
2022/10/14 03:53:10;;;;;;;0.73;0.40;;;26.30;21.70;;;;;;5052000;28;20227;-71
2022/10/14 03:55:37;;;;;;;1.60;0.40;;;25.80;22.90;;;;;;5051880;28;20180;-71
2022/10/14 03:58:05;;;;;;;1.03;0.27;;;26.60;23.20;;;;;;5051736;28;20210;-73
2022/10/14 04:00:34;;;;;;;1.47;0.33;;;26.60;22.40;;;;;;5051376;28;20278;-70
2022/10/14 04:03:02;;;;;;;1.33;0.30;;;26.40;22.80;;;;;;5051229;28;20274;-72
2022/10/14 04:05:32;;;;;;;3.43;0.60;;;26.70;22.50;;;;;;5051335;28;20176;-71
2022/10/14 04:08:03;;;;;;;1.03;0.37;;;26.90;22.80;;;;;;5051014;28;20570;-70
2022/10/14 04:10:30;;;;;;;2.93;0.43;;;27.10;21.80;;;;;;5051840;28;20246;-71
2022/10/14 04:12:58;;;;;;;0.70;0.30;;;26.70;22.90;;;;;;5051791;28;20187;-71
2022/10/14 04:15:25;;;;;;;1.33;0.40;;;26.90;23.20;;;;;;5050903;28;20271;-70
2022/10/14 04:17:52;;;;;;;0.67;0.50;;;25.30;24.80;;;;;;5050056;28;20249;-70
2022/10/14 04:20:20;;;;;;;0.93;0.47;;;24.90;26.30;;;;;;5034361;28;20208;-72
2022/10/14 04:22:47;;;;;;;0.40;0.37;;;25.90;24.70;;;;;;5032331;28;20187;-72
2022/10/14 04:25:18;;;;;;;0.60;0.30;;;26.40;23.80;;;;;;5049303;28;20168;-70
2022/10/14 04:27:45;;;;;;;9.10;0.70;;;26.00;24.90;;;;;;5057504;28;20172;-72
2022/10/14 04:30:13;;;;;;;1.47;0.60;;;26.40;24.50;;;;;;5047246;28;20642;-70
2022/10/14 04:32:40;;;;;;;1.87;0.30;;;26.60;24.30;;;;;;5051496;28;20263;-72
2022/10/14 04:35:08;;;;;;;0.87;0.40;;;26.90;23.90;;;;;;5040255;28;20640;-71
2022/10/14 04:37:36;;;;;;;1.17;0.30;;;26.80;24.10;;;;;;5038947;28;20184;-73
2022/10/14 04:40:04;;;;;;;0.40;0.40;;;26.90;24.60;;;;;;5045492;28;20250;-72
2022/10/14 04:42:31;;;;;;;3.03;0.40;;;27.10;23.80;;;;;;5052256;28;20676;-72
2022/10/14 04:44:59;;;;;;;3.70;0.37;;;26.90;24.60;;;;;;5039213;28;20183;-71
2022/10/14 04:47:26;;;;;;;2.10;0.50;;;27.00;24.70;;;;;;5051928;28;20231;-71
2022/10/14 04:49:53;;;;;;;4.30;0.50;;;26.80;24.70;;;;;;5052052;28;20184;-72
2022/10/14 04:52:21;;;;;;;1.77;0.50;;;25.80;26.30;;;;;;5050934;28;20271;-72
2022/10/14 04:54:48;;;;;;;1.03;0.43;;;25.80;26.50;;;;;;5050747;28;20298;-72
2022/10/14 04:57:15;;;;;;;0.67;0.30;;;26.40;25.90;;;;;;5039291;28;20179;-71
2022/10/14 04:59:43;;;;;;;1.37;0.40;;;27.10;25.30;;;;;;5052429;28;20655;-73
2022/10/14 05:02:10;;;;;;;1.93;0.40;;;27.60;24.70;;;;;;5052410;28;20192;-74
2022/10/14 05:04:37;;;;;;;2.87;0.50;;;27.30;24.90;;;;;;5045855;28;20186;-73
2022/10/14 05:07:05;;;;;;;3.27;0.50;;;27.60;25.00;;;;;;5051830;28;20187;-72
2022/10/14 05:09:32;;;;;;;1.10;0.50;;;27.40;24.30;;;;;;5050915;28;20192;-71
2022/10/14 05:11:59;;;;;;;1.27;0.57;;;27.50;24.60;;;;;;5050973;28;20184;-73
2022/10/14 05:14:27;;;;;;;3.70;0.50;;;27.80;24.50;;;;;;5049114;28;20203;-70
2022/10/14 05:16:54;;;;;;;0.40;0.37;;;28.20;24.10;;;;;;5036164;28;20211;-70
2022/10/14 05:19:21;;;;;;;0.50;0.30;;;27.90;24.40;;;;;;5043109;28;20218;-71
2022/10/14 05:21:49;;;;;;;1.20;0.40;;;26.70;26.10;;;;;;5044984;28;20281;-71
2022/10/14 05:24:17;;;;;;;2.57;0.50;;;26.60;25.80;;;;;;5050992;28;20190;-72
2022/10/14 05:26:44;;;;;;;0.77;0.30;;;26.90;25.70;;;;;;5048944;28;20605;-72
2022/10/14 05:29:12;;;;;;;0.80;0.47;;;26.30;26.40;;;;;;5051197;28;20496;-72
2022/10/14 05:31:39;;;;;;;2.53;0.40;;;26.50;25.60;;;;;;5051633;28;20259;-71
2022/10/14 05:34:06;;;;;;;1.10;0.60;;;25.80;27.00;;;;;;5046038;28;20642;-70
2022/10/14 05:36:34;;;;;;;1.60;0.40;;;25.40;27.60;;;;;;5045118;28;20172;-72
2022/10/14 05:39:01;;;;;;;1.73;0.40;;;25.40;27.50;;;;;;5054453;28;20263;-70
2022/10/14 05:41:28;;;;;;;0.50;0.40;;;25.20;26.40;;;;;;5054428;28;20222;-70
2022/10/14 05:43:56;;;;;;;1.67;0.50;;;24.80;27.00;;;;;;5050496;28;20234;-71
2022/10/14 05:46:23;;;;;;;0.30;0.30;;;24.90;27.20;;;;;;5054898;28;20228;-73
2022/10/14 05:48:50;;;;;;;1.63;0.93;;;26.40;25.60;;;;;;5050342;28;20792;-72
2022/10/14 05:51:20;;;;;;;2.40;0.60;;;27.40;24.10;;;;;;5054760;28;20195;-72
2022/10/14 05:53:48;;;;;;;2.50;0.43;;;26.90;24.40;;;;;;5054484;28;20180;-72
2022/10/14 05:56:15;;;;;;;1.07;0.40;;;26.90;24.60;;;;;;5053905;28;20188;-73
2022/10/14 05:58:43;;;;;;;2.30;0.40;;;27.20;23.80;;;;;;5053505;28;20183;-72
2022/10/14 06:01:11;;;;;;;0.50;0.33;;;27.30;24.50;;;;;;5045996;28;20216;-73
2022/10/14 06:03:38;;;;;;;0.97;0.67;;;27.30;24.10;;;;;;5052646;28;20234;-73
2022/10/14 06:06:06;;;;;;;1.23;0.47;;;27.30;24.20;;;;;;5048258;28;20212;-71
2022/10/14 06:08:33;;;;;;;3.23;0.60;;;26.40;25.80;;;;;;5037972;28;20177;-69
2022/10/14 06:11:03;;;;;;;1.63;0.40;;;25.30;27.00;;;;;;5051304;28;20172;-70
2022/10/14 06:13:31;;;;;;;2.17;0.60;;;25.20;27.30;;;;;;5054330;28;20180;-71
2022/10/14 06:16:09;;;;;;;1.23;0.53;;;24.30;28.40;;;;;;5053677;28;20198;-69
2022/10/14 06:18:37;;;;;;;2.37;0.60;;;23.80;29.40;;;;;;5053142;28;20648;-70
2022/10/14 06:21:07;;;;;;;0.70;0.63;;;23.60;29.90;;;;;;5047547;28;20213;-71
2022/10/14 06:23:34;;;;;;;2.17;0.50;;;23.80;29.90;;;;;;5051904;28;20327;-71
2022/10/14 06:26:10;;;;;;;1.67;0.70;;;23.70;30.00;;;;;;5051168;28;20183;-70
2022/10/14 06:28:38;;;;;;;1.13;0.53;;;23.60;30.00;;;;;;5053589;28;20176;-69
2022/10/14 06:31:06;;;;;;;2.57;0.73;;;23.50;30.30;;;;;;5048294;28;20176;-71
2022/10/14 06:33:33;;;;;;;0.50;0.43;;;23.40;30.30;;;;;;5054188;28;20678;-70
2022/10/14 06:36:05;;;;;;;0.77;0.60;;;23.30;30.80;;;;;;5045066;28;20588;-69
2022/10/14 06:38:33;;;;;;;1.80;0.50;;;23.20;31.10;;;;;;5039568;28;20697;-71
2022/10/14 06:41:00;;;;;;;0.93;0.40;;;23.00;31.20;;;;;;5052565;28;20230;-71
2022/10/14 06:43:27;;;;;;;2.10;0.70;;;23.00;31.60;;;;;;5051273;28;20215;-71
2022/10/14 06:45:57;;;;;;;2.47;0.50;;;22.80;32.20;;;;;;5054373;28;20306;-70
2022/10/14 06:48:24;;;;;;;1.33;0.70;;;22.70;32.50;;;;;;5054276;28;20518;-70
2022/10/14 06:50:52;;;;;;;1.80;0.60;;;22.90;32.20;;;;;;5051850;28;20696;-69
2022/10/14 06:53:20;;;;;;;0.93;0.50;;;24.20;30.60;;;;;;5053413;28;20175;-69
2022/10/14 06:55:47;;;;;;;3.47;0.80;;;24.90;29.60;;;;;;5052232;28;20184;-71
2022/10/14 06:58:15;;;;;;;0.63;0.53;;;24.80;29.90;;;;;;5051999;28;20176;-70
2022/10/14 07:00:42;;;;;;;2.47;0.63;;;24.50;30.70;;;;;;5050149;28;20792;-71
2022/10/14 07:03:09;;;;;;;2.23;0.70;;;23.10;33.50;;;;;;5051311;28;20176;-70
2022/10/14 07:05:37;;;;;;;1.87;0.53;;;22.70;34.90;;;;;;5047977;28;20223;-70
2022/10/14 07:08:04;;;;;;;1.07;0.60;;;23.30;34.00;;;;;;5053022;28;20254;-71
2022/10/14 07:10:31;;;;;;;1.13;0.60;;;23.00;34.40;;;;;;5052903;28;20638;-71
2022/10/14 07:12:59;;;;;;;0.50;0.50;;;23.50;34.00;;;;;;5062280;28;20270;-71
2022/10/14 07:15:26;;;;;;;2.53;0.63;;;24.40;31.00;;;;;;5040943;28;20214;-71
2022/10/14 07:17:53;;;;;;;0.70;0.57;;;24.40;31.20;;;;;;5052707;28;20183;-71
2022/10/14 07:20:20;;;;;;;1.20;0.70;;;24.40;30.40;;;;;;5055825;28;20207;-71
2022/10/14 07:22:48;;;;;;;3.73;0.53;;;24.40;30.50;;;;;;5042021;28;20249;-70
2022/10/14 07:25:15;;;;;;;1.53;0.50;;;24.10;30.40;;;;;;5051245;28;20215;-72
2022/10/14 07:27:42;;;;;;;2.43;0.50;;;23.90;31.20;;;;;;5052851;28;20270;-72
2022/10/14 07:30:10;;;;;;;0.83;0.47;;;23.40;31.90;;;;;;5052406;28;20700;-70
2022/10/14 07:32:38;;;;;;;0.87;0.60;;;23.10;32.80;;;;;;5052477;28;20172;-71
2022/10/14 07:35:06;;;;;;;0.80;0.60;;;22.30;33.50;;;;;;5052962;28;20216;-73
2022/10/14 07:37:33;;;;;;;2.30;0.80;;;22.00;34.50;;;;;;5053020;28;20643;-71
2022/10/14 07:40:00;;;;;;;2.20;0.60;;;21.80;34.90;;;;;;5051025;28;20261;-72
2022/10/14 07:42:28;;;;;;;1.07;0.70;;;21.50;35.40;;;;;;5039168;28;20203;-71
2022/10/14 07:44:56;;;;;;;1.13;0.53;;;21.40;35.60;;;;;;5052078;28;20207;-70
2022/10/14 07:47:24;;;;;;;2.73;0.67;;;21.40;36.10;;;;;;5052376;28;20283;-71
2022/10/14 07:49:51;;;;;;;1.93;0.70;;;21.30;35.90;;;;;;5045627;28;20180;-70
2022/10/14 07:52:19;;;;;;;0.80;0.53;;;21.20;36.20;;;;;;5056562;28;20188;-72
2022/10/14 07:54:46;;;;;;;0.73;0.60;;;21.10;36.30;;;;;;5044224;28;20532;-73
2022/10/14 07:57:14;;;;;;;1.40;0.80;;;21.00;36.70;;;;;;5052333;28;20211;-72
2022/10/14 07:59:41;;;;;;;2.57;0.80;;;21.00;37.10;;;;;;5052272;28;20226;-70
2022/10/14 08:02:11;;;;;;;1.27;0.97;;;20.80;37.40;;;;;;5046044;28;20642;-70
2022/10/14 08:04:39;;;;;;;1.20;0.70;;;20.80;37.60;;;;;;5037075;28;20280;-70
2022/10/14 08:07:06;;;;;;;0.93;0.53;;;20.70;37.60;;;;;;5052420;28;20215;-71
2022/10/14 08:09:35;;;;;;;0.60;0.57;;;20.60;37.90;;;;;;5052237;28;20283;-71
2022/10/14 08:12:02;;;;;;;0.67;0.67;;;20.50;37.90;;;;;;5052404;28;20179;-70
2022/10/14 08:14:30;;;;;;;1.40;0.90;;;20.50;38.30;;;;;;5051602;28;20180;-71
2022/10/14 08:16:57;;;;;;;2.17;1.00;;;20.40;38.70;;;;;;5052443;28;20207;-70
2022/10/14 08:19:25;;;;;;;1.57;0.73;;;20.40;39.10;;;;;;5052566;28;20246;-70
2022/10/14 08:21:52;;;;;;;3.27;0.83;;;20.30;39.20;;;;;;5052302;28;20673;-70
2022/10/14 08:24:20;;;;;;;1.27;0.80;;;20.30;39.50;;;;;;5052693;28;20207;-69
2022/10/14 08:26:56;;;;;;;3.63;0.90;;;20.20;40.00;;;;;;5051982;28;20183;-72
2022/10/14 08:29:25;;;;;;;1.83;0.70;;;20.10;40.30;;;;;;5032704;28;20171;-71
2022/10/14 08:31:54;;;;;;;1.57;0.80;;;20.10;40.50;;;;;;5044896;28;20180;-71
2022/10/14 08:34:23;;;;;;;2.23;1.00;;;20.00;40.70;;;;;;5051247;28;20172;-71
2022/10/14 08:36:51;;;;;;;1.73;1.03;;;20.00;41.20;;;;;;5052142;28;20180;-72
2022/10/14 08:39:19;;;;;;;1.83;0.80;;;20.00;41.30;;;;;;5052150;28;20263;-71
2022/10/14 08:42:05;;;;;;;1.53;0.90;;;19.90;41.10;;;;;;5051881;28;20235;-72
2022/10/14 08:44:56;;;;;;;1.37;0.70;;;19.80;41.80;;;;;;5052270;28;20545;-72
2022/10/14 08:47:34;;;;;;;1.10;0.73;;;19.80;42.00;;;;;;5052152;28;20609;-70
2022/10/14 08:50:03;;;;;;;2.43;1.07;;;19.80;41.50;;;;;;5052374;28;20175;-72
2022/10/14 08:52:42;;;;;;;1.60;0.90;;;19.70;40.90;;;;;;5051899;28;20184;-70
2022/10/14 08:55:15;;;;;;;0.80;0.80;;;19.80;40.60;;;;;;5052161;28;20211;-70
2022/10/14 08:58:07;;;;;;;1.87;1.00;;;19.70;41.00;;;;;;5052116;28;20259;-69
2022/10/14 09:00:35;;;;;;;3.33;1.33;;;19.70;41.50;;;;;;5030399;28;20267;-70
2022/10/14 09:03:10;;;;;;;2.37;1.50;;;19.60;41.80;;;;;;5048634;28;20188;-70
2022/10/14 09:05:39;;;;;;;1.40;1.17;;;19.50;41.50;;;;;;5052489;28;20183;-71
2022/10/14 09:08:12;;;;;;;2.17;1.20;;;19.50;41.70;;;;;;5039052;28;20176;-71
2022/10/14 09:10:42;;;;;;;1.67;0.90;;;19.50;41.00;;;;;;5055480;28;20176;-72
2022/10/14 09:13:27;;;;;;;1.10;0.90;;;19.50;41.70;;;;;;5056073;28;20665;-71
2022/10/14 09:16:20;;;;;;;2.20;0.90;;;19.50;41.30;;;;;;5055698;28;20183;-72
2022/10/14 09:19:07;;;;;;;1.77;0.90;;;19.40;41.10;;;;;;5055590;28;20191;-71
2022/10/14 09:21:36;;;;;;;2.20;0.93;;;19.30;40.90;;;;;;5055665;28;20246;-72
2022/10/14 09:24:22;;;;;;;1.33;0.80;;;19.40;40.70;;;;;;5055645;28;20250;-71
2022/10/14 09:27:11;;;;;;;2.10;0.90;;;19.40;40.40;;;;;;5055256;28;20175;-73
2022/10/14 09:29:54;;;;;;;0.70;0.70;;;19.30;40.70;;;;;;5055542;28;20218;-70
2022/10/14 09:32:30;;;;;;;1.27;0.90;;;19.30;41.10;;;;;;5051071;28;20185;-71
2022/10/14 09:34:58;;;;;;;1.50;0.70;;;19.30;41.10;;;;;;5045280;28;20246;-70
2022/10/14 09:37:34;;;;;;;1.10;0.70;;;19.20;41.40;;;;;;5055393;28;20225;-71
2022/10/14 09:40:24;;;;;;;1.63;0.70;;;19.10;42.20;;;;;;5045465;28;20226;-69
2022/10/14 09:43:10;;;;;;;0.83;0.70;;;19.00;42.70;;;;;;5054974;28;20233;-71
2022/10/14 09:45:51;;;;;;;1.63;0.70;;;18.90;43.00;;;;;;5055139;28;20225;-71
2022/10/14 09:48:38;;;;;;;2.63;0.80;;;18.90;43.20;;;;;;5055148;28;20184;-72
2022/10/14 09:51:17;;;;;;;1.20;0.80;;;18.80;43.40;;;;;;5046100;28;20231;-71
2022/10/14 09:53:48;;;;;;;1.10;0.80;;;18.80;43.60;;;;;;5050378;28;20191;-70
2022/10/14 09:56:27;;;;;;;1.83;0.83;;;18.80;44.00;;;;;;5054846;28;20184;-71
2022/10/14 09:58:56;;;;;;;3.70;0.93;;;18.70;44.30;;;;;;5054745;28;20160;-71
2022/10/14 10:01:53;;;;;;;2.10;1.00;;;18.70;44.50;;;;;;5055210;28;20261;-71
2022/10/14 10:04:31;;;;;;;1.67;0.90;;;18.70;44.70;;;;;;5055045;28;20172;-71
2022/10/14 10:07:00;;;;;;;1.53;0.93;;;18.60;45.00;;;;;;5054963;28;20274;-71
2022/10/14 10:09:28;;;;;;;2.60;1.10;;;18.50;45.30;;;;;;5054829;28;20175;-71
2022/10/14 10:11:55;;;;;;;2.50;0.80;;;18.50;45.50;;;;;;5054821;28;20184;-70
2022/10/14 10:14:31;;;;;;;2.27;0.90;;;18.40;45.60;;;;;;5053662;28;20172;-71
2022/10/14 10:17:08;;;;;;;3.07;1.07;;;18.30;46.20;;;;;;5052602;28;20237;-71
2022/10/14 10:19:43;;;;;;;1.33;0.80;;;18.30;46.40;;;;;;5054685;28;20210;-72
2022/10/14 10:22:21;;;;;;;2.73;1.17;;;18.30;46.70;;;;;;5054653;28;20676;-71
2022/10/14 10:24:51;;;;;;;1.30;0.90;;;18.30;46.50;;;;;;5051857;28;20568;-71
2022/10/14 10:27:25;;;;;;;1.93;1.23;;;18.30;47.10;;;;;;5051358;28;20551;-71
2022/10/14 10:29:55;;;;;;;2.73;1.20;;;18.20;47.10;;;;;;5054299;28;20199;-71
2022/10/14 10:32:34;;;;;;;3.20;1.13;;;18.20;46.90;;;;;;5054120;28;20190;-71
2022/10/14 10:35:21;;;;;;;2.67;0.93;;;18.20;47.30;;;;;;5054285;28;20231;-71
2022/10/14 10:38:01;;;;;;;2.47;1.43;;;18.20;47.50;;;;;;5042704;28;20720;-71
2022/10/14 10:40:40;;;;;;;2.17;1.30;;;18.00;47.60;;;;;;5058078;28;20198;-70
2022/10/14 10:43:48;;;;;;;2.33;1.20;;;18.00;47.80;;;;;;5052310;28;20184;-70
2022/10/14 10:46:36;;;;;;;1.80;1.10;;;18.00;48.30;;;;;;5050148;28;20306;-71
2022/10/14 10:49:37;;;;;;;1.60;1.17;;;17.90;48.50;;;;;;5047683;28;20586;-71
2022/10/14 10:52:27;;;;;;;2.93;1.50;;;17.80;49.10;;;;;;5042848;28;20180;-71
2022/10/14 10:55:09;;;;;;;4.70;1.10;;;17.80;49.40;;;;;;5050016;28;20387;-71
2022/10/14 10:57:45;;;;;;;1.97;1.23;;;17.80;49.20;;;;;;5052394;28;20176;-71
2022/10/14 11:00:15;;;;;;;2.90;1.40;;;17.70;49.40;;;;;;5053259;28;20226;-71
2022/10/14 11:02:53;;;;;;;1.63;1.00;;;17.70;49.70;;;;;;5052806;28;20226;-71
2022/10/14 11:05:42;;;;;;;2.07;1.20;;;17.70;50.10;;;;;;5053223;28;20261;-71
2022/10/14 11:14:41;;;;;;;1.87;1.20;;;17.70;50.60;;;;;;5048962;28;20198;-70
2022/10/14 11:17:20;;;;;;;3.50;1.37;;;17.60;50.80;;;;;;5046543;28;20199;-69
2022/10/14 11:20:14;;;;;;;2.33;1.30;;;17.60;51.60;;;;;;5052931;28;20210;-70
2022/10/14 11:22:50;;;;;;;3.37;1.37;;;17.50;51.10;;;;;;5047077;28;20207;-69
2022/10/14 11:25:43;;;;;;;3.53;1.33;;;17.40;50.90;;;;;;5045915;28;20172;-70
2022/10/14 11:28:42;;;;;;;3.63;2.17;;;17.40;51.60;;;;;;5051570;28;20721;-70
2022/10/14 11:31:28;;;;;;;3.40;2.37;;;17.30;51.80;;;;;;5041683;28;20203;-69
2022/10/14 11:34:31;;;;;;;6.37;1.87;;;17.30;52.20;;;;;;5053110;28;20246;-70
2022/10/14 11:37:34;;;;;;;5.73;1.70;;;17.20;52.60;;;;;;5042625;28;20627;-70
2022/10/14 11:40:08;;;;;;;4.00;1.90;;;17.20;52.80;;;;;;5050936;28;20182;-69
2022/10/14 11:43:06;;;;;;;2.93;1.53;;;17.20;53.10;;;;;;5042772;28;20646;-69
2022/10/14 11:45:55;;;;;;;1.73;1.20;;;17.10;53.20;;;;;;5040205;28;20203;-70
2022/10/14 11:48:31;;;;;;;2.20;1.33;;;17.00;53.20;;;;;;5052471;28;20192;-70
2022/10/14 11:51:23;;;;;;;3.90;1.50;;;17.00;54.20;;;;;;5050704;28;20273;-70
2022/10/14 11:54:27;;;;;;;2.80;1.40;;;17.00;54.90;;;;;;5039010;28;20269;-70
2022/10/14 11:57:07;;;;;;;3.87;1.20;;;16.80;54.60;;;;;;5047526;28;20195;-70
2022/10/14 12:03:02;;;;;;;1.33;1.00;;;16.70;56.00;;;;;;5038917;28;20211;-71
2022/10/14 12:05:43;;;;;;;2.43;1.30;;;16.60;56.40;;;;;;5046114;28;20261;-70
2022/10/14 12:08:29;;;;;;;1.53;1.20;;;16.60;55.90;;;;;;5049550;28;20650;-70
2022/10/14 12:11:29;;;;;;;2.93;1.50;;;16.60;56.30;;;;;;5048320;28;20267;-70
2022/10/14 12:14:03;;;;;;;2.10;1.27;;;16.60;56.20;;;;;;5051767;28;20538;-70
2022/10/14 12:16:32;;;;;;;2.60;1.40;;;16.60;56.10;;;;;;5042197;28;20245;-70
2022/10/14 12:19:00;;;;;;;2.80;1.50;;;16.60;56.40;;;;;;5051483;28;20194;-70
2022/10/14 12:21:49;;;;;;;3.13;1.27;;;16.50;56.80;;;;;;5052362;28;20209;-70
2022/10/14 12:24:23;;;;;;;1.83;0.90;;;16.50;56.90;;;;;;5039119;28;20183;-70
2022/10/14 12:26:57;;;;;;;2.03;1.40;;;16.50;57.30;;;;;;5048057;28;20613;-70
2022/10/14 12:29:42;;;;;;;5.90;1.50;;;16.50;56.90;;;;;;5039484;28;20641;-70
2022/10/14 12:32:19;;;;;;;2.47;1.20;;;16.50;56.60;;;;;;5052300;28;20195;-70
2022/10/14 12:34:57;;;;;;;2.97;1.20;;;16.50;57.10;;;;;;5051181;28;20470;-70
2022/10/14 12:37:33;;;;;;;3.10;1.40;;;16.40;57.70;;;;;;5052331;28;20249;-70
2022/10/14 12:40:06;;;;;;;4.83;1.53;;;16.30;57.90;;;;;;5053975;28;20189;-70
2022/10/14 12:42:52;;;;;;;3.23;1.40;;;16.30;57.20;;;;;;5055531;28;20171;-70
2022/10/14 12:45:25;;;;;;;7.60;1.60;;;16.30;56.80;;;;;;5056349;28;20175;-70
2022/10/14 12:48:20;;;;;;;2.47;1.57;;;16.30;58.70;;;;;;5056263;28;20188;-70
2022/10/14 12:50:50;;;;;;;1.83;1.50;;;16.10;59.90;;;;;;5055539;28;20187;-70
2022/10/14 12:53:31;;;;;;;3.47;1.60;;;16.10;60.70;;;;;;5056135;28;20284;-70
2022/10/14 12:56:00;;;;;;;4.33;1.70;;;16.00;61.70;;;;;;5045704;28;20204;-69
2022/10/14 12:59:00;;;;;;;1.77;1.17;;;16.00;61.20;;;;;;5055557;28;20282;-70
2022/10/14 13:01:27;;;;;;;4.20;1.70;;;15.80;60.70;;;;;;5042949;28;20682;-70
2022/10/14 13:03:59;;;;;;;3.33;1.53;;;15.80;60.30;;;;;;5053752;28;20222;-70
2022/10/14 13:06:32;;;;;;;2.10;1.37;;;15.80;59.50;;;;;;5056047;28;20210;-70
2022/10/14 13:09:14;;;;;;;3.07;1.70;;;15.90;58.90;;;;;;5055768;28;20172;-70
2022/10/14 13:12:05;;;;;;;2.13;1.37;;;16.00;58.50;;;;;;5055159;28;20199;-70
2022/10/14 13:14:51;;;;;;;4.27;1.40;;;16.00;58.60;;;;;;5055038;28;20172;-70
2022/10/14 13:17:47;;;;;;;3.77;1.40;;;16.00;58.90;;;;;;5051599;28;20601;-70
2022/10/14 13:20:46;;;;;;;4.17;1.23;;;15.90;58.30;;;;;;5055262;28;20287;-70
2022/10/14 13:23:36;;;;;;;3.57;1.23;;;15.90;58.50;;;;;;5054575;28;20184;-70
2022/10/14 13:26:14;;;;;;;1.57;1.37;;;15.90;59.10;;;;;;5051801;28;20194;-70
2022/10/14 13:29:06;;;;;;;2.00;1.20;;;15.80;59.10;;;;;;5042077;28;20640;-70
2022/10/14 13:32:02;;;;;;;2.03;1.17;;;15.80;59.60;;;;;;5055572;28;20183;-71